Time;durP1;ratioP1;P1;durP2;ratioP2;P2;SDS_P1;SDS_P2;PMS_P1;PMS_P2;Temp;Humidity;BMP_temperature;BMP_pressure;BME280_temperature;BME280_humidity;BME280_pressure;Samples;Min_cycle;Max_cycle;Signal;HPM_P1;HPM_P2
2023/04/15 00:00:58;;;;;;;;;;;;;;;-144.99;92.89;52458.28;5001124;28;19937;-65
2023/04/15 00:03:24;;;;;;;;;;;;;;;-144.99;94.03;52395.09;5008283;28;19930;-62
2023/04/15 00:05:51;;;;;;;;;;;;;;;-144.99;94.94;52411.41;5008354;28;19937;-62
2023/04/15 00:08:18;;;;;;;;;;;;;;;-144.99;95.66;52384.91;5008789;28;19933;-67
2023/04/15 00:10:45;;;;;;;;;;;;;;;-144.99;95.66;52419.56;5008058;28;19965;-64
2023/04/15 00:13:11;;;;;;;;;;;;;;;-144.99;96.24;52419.56;5011516;28;20020;-63
2023/04/15 00:15:38;;;;;;;;;;;;;;;-144.99;95.91;52403.25;5012443;28;19968;-64
2023/04/15 00:18:06;;;;;;;;;;;;;;;-144.99;96.28;52380.84;5007926;28;19926;-63
2023/04/15 00:20:33;;;;;;;;;;;;;;;-144.99;97.97;52435.88;5009512;28;19925;-64
2023/04/15 00:23:00;;;;;;;;;;;;;;;-144.99;98.11;52444.03;5003548;28;19965;-64
2023/04/15 00:25:27;;;;;;;;;;;;;;;-144.99;98.02;52411.41;5009606;28;19940;-65
2023/04/15 00:27:53;;;;;;;;;;;;;;;-144.99;98.13;52423.63;5012159;28;19925;-61
2023/04/15 00:30:20;;;;;;;;;;;;;;;-144.99;98.74;52439.94;5010919;28;19936;-61
2023/04/15 00:32:47;;;;;;;;;;;;;;;-144.99;99.58;52407.31;5010755;28;20035;-62
2023/04/15 00:35:15;;;;;;;;;;;;;;;-144.99;99.36;52382.88;5011923;28;20013;-61
2023/04/15 00:37:42;;;;;;;;;;;;;;;-144.99;100.00;52411.41;5012204;28;19925;-64
2023/04/15 00:40:12;;;;;;;;;;;;;;;-144.99;100.00;52431.78;5012252;28;20021;-63
2023/04/15 00:42:39;;;;;;;;;;;;;;;-144.99;100.00;52437.91;5008375;28;19929;-64
2023/04/15 00:45:07;;;;;;;;;;;;;;;-144.99;100.00;52427.72;5009552;28;19965;-64
2023/04/15 00:47:36;;;;;;;;;;;;;;;-144.99;100.00;52411.41;5003937;28;19932;-63
2023/04/15 00:50:02;;;;;;;;;;;;;;;-144.99;99.10;52366.56;5008937;28;19926;-65
2023/04/15 00:52:30;;;;;;;;;;;;;;;-144.99;97.95;52391.03;5012145;28;20506;-65
2023/04/15 00:54:57;;;;;;;;;;;;;;;-144.99;98.16;52423.63;5004842;28;19929;-65
2023/04/15 00:57:24;;;;;;;;;;;;;;;-144.99;98.79;52399.19;5011817;28;19925;-66
2023/04/15 00:59:51;;;;;;;;;;;;;;;-144.99;100.00;52407.31;5011274;28;19941;-63
2023/04/15 01:02:18;;;;;;;;;;;;;;;-144.99;99.64;52419.56;5009141;28;19929;-63
2023/04/15 01:04:44;;;;;;;;;;;;;;;-144.99;99.20;52397.13;5008471;28;19980;-64
2023/04/15 01:07:11;;;;;;;;;;;;;;;-144.99;98.56;52423.63;5011689;28;19926;-65
2023/04/15 01:09:39;;;;;;;;;;;;;;;-144.99;99.29;52358.41;5012950;28;20067;-65
2023/04/15 01:12:05;;;;;;;;;;;;;;;-144.99;99.00;52429.75;5011142;28;19932;-64
2023/04/15 01:14:33;;;;;;;;;;;;;;;-144.99;99.20;52386.94;5011366;28;19961;-64
2023/04/15 01:17:00;;;;;;;;;;;;;;;-144.99;100.00;52429.75;5009386;28;19968;-64
2023/04/15 01:19:27;;;;;;;;;;;;;;;-144.99;100.00;52407.31;5010547;28;19991;-64
2023/04/15 01:21:54;;;;;;;;;;;;;;;-144.99;100.00;52429.75;5009425;28;19929;-62
2023/04/15 01:24:20;;;;;;;;;;;;;;;-144.99;100.00;52386.94;5007245;28;19983;-62
2023/04/15 01:26:49;;;;;;;;;;;;;;;-144.99;100.00;52409.38;5009847;28;19929;-62
2023/04/15 01:29:16;;;;;;;;;;;;;;;-144.99;100.00;52395.09;5001988;28;19926;-61
2023/04/15 01:31:49;;;;;;;;;;;;;;;-144.99;100.00;52395.09;5009189;28;19933;-62
2023/04/15 01:34:16;;;;;;;;;;;;;;;-144.99;100.00;52395.09;5010754;28;19929;-60
2023/04/15 01:36:42;;;;;;;;;;;;;;;-144.99;100.00;52401.22;5008599;28;20466;-63
2023/04/15 01:39:09;;;;;;;;;;;;;;;-144.99;100.00;52399.19;5007714;28;19992;-63
2023/04/15 01:41:35;;;;;;;;;;;;;;;-144.99;100.00;52401.22;5010787;28;19971;-64
2023/04/15 01:44:03;;;;;;;;;;;;;;;-144.99;100.00;52382.88;5010847;28;19960;-65
2023/04/15 01:46:30;;;;;;;;;;;;;;;-144.99;100.00;52407.31;5014490;28;20064;-64
2023/04/15 01:48:56;;;;;;;;;;;;;;;-144.99;100.00;52395.09;5011506;28;19925;-64
2023/04/15 01:51:23;;;;;;;;;;;;;;;-144.99;100.00;52419.56;5014556;28;20418;-64
2023/04/15 01:53:49;;;;;;;;;;;;;;;-144.99;100.00;52423.63;5011727;28;19988;-64
2023/04/15 01:56:16;;;;;;;;;;;;;;;-144.99;100.00;52407.31;5011376;28;19964;-65
2023/04/15 01:58:42;;;;;;;;;;;;;;;-144.99;100.00;52413.44;5012588;28;19952;-65
2023/04/15 02:01:11;;;;;;;;;;;;;;;-144.99;100.00;52391.03;5013880;28;19934;-65
2023/04/15 02:03:38;;;;;;;;;;;;;;;-144.99;100.00;52427.72;5013549;28;19926;-64
2023/04/15 02:06:05;;;;;;;;;;;;;;;-144.99;100.00;52386.94;5014126;28;19989;-64
2023/04/15 02:08:31;;;;;;;;;;;;;;;-144.99;100.00;52401.22;5009311;28;19949;-67
2023/04/15 02:10:58;;;;;;;;;;;;;;;-144.99;100.00;52391.03;5010503;28;19980;-65
2023/04/15 02:13:24;;;;;;;;;;;;;;;-144.99;100.00;52456.25;5012723;28;19933;-63
2023/04/15 02:15:51;;;;;;;;;;;;;;;-144.99;100.00;52415.47;5005863;28;19937;-65
2023/04/15 02:18:19;;;;;;;;;;;;;;;-144.99;100.00;52374.72;5010645;28;19984;-65
2023/04/15 02:20:45;;;;;;;;;;;;;;;-144.99;100.00;52407.31;5005091;28;19983;-64
2023/04/15 02:23:12;;;;;;;;;;;;;;;-144.99;100.00;52382.88;5002733;28;20300;-66
2023/04/15 02:25:39;;;;;;;;;;;;;;;-144.99;100.00;52419.56;5008315;28;19957;-65
2023/04/15 02:28:06;;;;;;;;;;;;;;;-144.99;100.00;52409.38;5000172;28;20317;-65
2023/04/15 02:30:33;;;;;;;;;;;;;;;-144.99;100.00;52386.94;5011561;28;19925;-62
2023/04/15 02:33:00;;;;;;;;;;;;;;;-144.99;100.00;52407.31;5002266;28;19968;-63
2023/04/15 02:35:28;;;;;;;;;;;;;;;-144.99;100.00;52374.72;5009759;28;19988;-62
2023/04/15 02:37:54;;;;;;;;;;;;;;;-144.99;100.00;52399.19;5010106;28;19980;-63
2023/04/15 02:40:21;;;;;;;;;;;;;;;-144.99;100.00;52403.25;4996865;28;20000;-61
2023/04/15 02:42:47;;;;;;;;;;;;;;;-144.99;100.00;52415.47;5000343;28;20307;-63
2023/04/15 02:45:14;;;;;;;;;;;;;;;-144.99;100.00;52386.94;5008464;28;20044;-63
2023/04/15 02:47:42;;;;;;;;;;;;;;;-144.99;100.00;52399.19;5007938;28;19930;-61
2023/04/15 02:50:11;;;;;;;;;;;;;;;-144.99;100.00;52384.91;5007637;28;20426;-63
2023/04/15 02:52:39;;;;;;;;;;;;;;;-144.99;100.00;52382.88;5008750;28;20032;-68
2023/04/15 02:55:07;;;;;;;;;;;;;;;-144.99;100.00;52362.50;5005096;28;19974;-68
2023/04/15 02:57:36;;;;;;;;;;;;;;;-144.99;100.00;52429.75;5003146;28;19973;-66
2023/04/15 03:00:03;;;;;;;;;;;;;;;-144.99;100.00;52382.88;5006473;28;20032;-65
2023/04/15 03:02:33;;;;;;;;;;;;;;;-144.99;100.00;52423.63;5002163;28;19926;-61
2023/04/15 03:05:00;;;;;;;;;;;;;;;-144.99;100.00;52374.72;5009740;28;19948;-61
2023/04/15 03:07:26;;;;;;;;;;;;;;;-144.99;100.00;52415.47;5003995;28;19937;-61
2023/04/15 03:09:54;;;;;;;;;;;;;;;-144.99;100.00;52403.25;5006568;28;19925;-63
2023/04/15 03:12:21;;;;;;;;;;;;;;;-144.99;100.00;52395.09;5009068;28;19934;-60
2023/04/15 03:14:47;;;;;;;;;;;;;;;-144.99;100.00;52386.94;5009594;28;19984;-61
2023/04/15 03:17:14;;;;;;;;;;;;;;;-144.99;100.00;52411.41;5010804;28;19972;-63
2023/04/15 03:19:41;;;;;;;;;;;;;;;-144.99;100.00;52382.88;5032413;22;19933;-64
2023/04/15 03:22:07;;;;;;;;;;;;;;;-144.99;100.00;52374.72;5067613;28;19928;-64
2023/04/15 03:24:34;;;;;;;;;;;;;;;-144.99;100.00;52407.31;5066295;28;19982;-68
2023/04/15 03:27:02;;;;;;;;;;;;;;;-144.99;100.00;52374.72;5055723;28;19937;-68
2023/04/15 03:29:28;;;;;;;;;;;;;;;-144.99;100.00;52403.25;5064707;28;19980;-68
2023/04/15 03:31:55;;;;;;;;;;;;;;;-144.99;100.00;52384.91;5055276;28;20366;-67
2023/04/15 03:34:21;;;;;;;;;;;;;;;-144.99;100.00;52431.78;5072638;28;19970;-67
2023/04/15 03:36:48;;;;;;;;;;;;;;;-144.99;100.00;52362.50;5070265;28;19981;-67
2023/04/15 03:39:14;;;;;;;;;;;;;;;-144.99;100.00;52391.03;5064323;28;19925;-66
2023/04/15 03:41:41;;;;;;;;;;;;;;;-144.99;100.00;52382.88;5073464;28;19924;-67
2023/04/15 03:44:09;;;;;;;;;;;;;;;-144.99;100.00;52382.88;5057788;28;20459;-67
2023/04/15 03:46:35;;;;;;;;;;;;;;;-144.99;100.00;52399.19;5065537;28;19986;-66
2023/04/15 03:49:02;;;;;;;;;;;;;;;-144.99;100.00;52393.06;5067322;28;20043;-67
2023/04/15 03:51:30;;;;;;;;;;;;;;;-144.99;100.00;52395.09;5074005;28;19936;-68
2023/04/15 03:53:57;;;;;;;;;;;;;;;-144.99;100.00;52399.19;5081342;28;19924;-68
2023/04/15 03:56:24;;;;;;;;;;;;;;;-144.99;100.00;52397.13;5056556;28;19933;-68
2023/04/15 03:58:50;;;;;;;;;;;;;;;-144.99;100.00;52397.13;5057803;28;19932;-68
2023/04/15 04:01:18;;;;;;;;;;;;;;;-144.99;100.00;52403.25;5055227;28;20470;-68
2023/04/15 04:03:45;;;;;;;;;;;;;;;-144.99;100.00;52366.56;5059905;28;20160;-65
2023/04/15 04:06:12;;;;;;;;;;;;;;;-144.99;100.00;52399.19;5061874;28;19928;-64
2023/04/15 04:08:38;;;;;;;;;;;;;;;-144.99;100.00;52354.34;5061062;28;19974;-64
2023/04/15 04:11:05;;;;;;;;;;;;;;;-144.99;100.00;52374.72;5054020;28;19928;-64
2023/04/15 04:13:32;;;;;;;;;;;;;;;-144.99;100.00;52399.19;5058929;28;19928;-63
2023/04/15 04:15:58;;;;;;;;;;;;;;;-144.99;100.00;52350.25;5060431;28;19970;-63
2023/04/15 04:18:26;;;;;;;;;;;;;;;-144.99;100.00;52407.31;5064449;28;19924;-68
2023/04/15 04:20:52;;;;;;;;;;;;;;;-144.99;100.00;52382.88;5061581;28;19963;-62
2023/04/15 04:23:19;;;;;;;;;;;;;;;-144.99;100.00;52366.56;5059928;28;20183;-61
2023/04/15 04:25:46;;;;;;;;;;;;;;;-144.99;100.00;52358.41;5062297;28;19930;-61
2023/04/15 04:28:13;;;;;;;;;;;;;;;-144.99;100.00;52370.63;5063128;28;19924;-61
2023/04/15 04:30:39;;;;;;;;;;;;;;;-144.99;100.00;52362.50;5054575;28;20381;-61
2023/04/15 04:33:06;;;;;;;;;;;;;;;-144.99;100.00;52423.63;5056499;28;19987;-61
2023/04/15 04:35:36;;;;;;;;;;;;;;;-144.99;100.00;52382.88;5063745;28;20012;-62
2023/04/15 04:38:03;;;;;;;;;;;;;;;-144.99;100.00;52378.78;5057107;28;19994;-64
2023/04/15 04:40:29;;;;;;;;;;;;;;;-144.99;100.00;52409.38;5057075;28;19930;-63
2023/04/15 04:42:56;;;;;;;;;;;;;;;-144.99;100.00;52376.75;5056539;28;20399;-62
2023/04/15 04:45:22;;;;;;;;;;;;;;;-144.99;100.00;52372.69;5055761;28;19936;-63
2023/04/15 04:47:49;;;;;;;;;;;;;;;-144.99;100.00;52415.47;5056451;28;19925;-63
2023/04/15 04:50:16;;;;;;;;;;;;;;;-144.99;100.00;52399.19;5050657;28;20284;-63
2023/04/15 04:52:44;;;;;;;;;;;;;;;-144.99;100.00;52376.75;5064442;28;19928;-69
2023/04/15 04:55:11;;;;;;;;;;;;;;;-144.99;100.00;52356.38;5056743;28;20018;-68
2023/04/15 04:57:38;;;;;;;;;;;;;;;-144.99;100.00;52391.03;5056458;28;19928;-63
2023/04/15 05:00:06;;;;;;;;;;;;;;;-144.99;100.00;52411.41;5066073;28;19935;-62
2023/04/15 05:02:32;;;;;;;;;;;;;;;-144.99;100.00;52399.19;5061428;28;20286;-61
2023/04/15 05:04:59;;;;;;;;;;;;;;;-144.99;100.00;52433.81;5063505;28;20332;-64
2023/04/15 05:07:26;;;;;;;;;;;;;;;-144.99;100.00;52370.63;5060395;28;19970;-64
2023/04/15 05:09:54;;;;;;;;;;;;;;;-144.99;100.00;52380.84;5066580;28;19925;-64
2023/04/15 05:12:20;;;;;;;;;;;;;;;-144.99;100.00;52370.63;5058155;28;19960;-64
2023/04/15 05:14:47;;;;;;;;;;;;;;;-144.99;100.00;52386.94;5055157;28;19936;-64
2023/04/15 05:17:14;;;;;;;;;;;;;;;-144.99;100.00;52386.94;5061734;28;19960;-64
2023/04/15 05:19:40;;;;;;;;;;;;;;;-144.99;100.00;52382.88;5064510;28;19990;-64
2023/04/15 05:22:07;;;;;;;;;;;;;;;-144.99;100.00;52366.56;5067179;28;19960;-64
2023/04/15 05:24:34;;;;;;;;;;;;;;;-144.99;100.00;52409.38;5067629;28;20399;-65
2023/04/15 05:27:02;;;;;;;;;;;;;;;-144.99;100.00;52364.53;5057273;28;20008;-73
2023/04/15 05:29:29;;;;;;;;;;;;;;;-144.99;100.00;52354.34;5064072;28;19929;-61
2023/04/15 05:31:56;;;;;;;;;;;;;;;-144.99;100.00;52346.19;5064767;28;19928;-61
2023/04/15 05:34:22;;;;;;;;;;;;;;;-144.99;100.00;52391.03;5069407;28;20422;-60
2023/04/15 05:36:49;;;;;;;;;;;;;;;-144.99;100.00;52374.72;5060536;28;19925;-67
2023/04/15 05:39:15;;;;;;;;;;;;;;;-144.99;100.00;52362.50;5064834;28;19925;-63
2023/04/15 05:41:42;;;;;;;;;;;;;;;-144.99;100.00;52378.78;5065555;28;19979;-63
2023/04/15 05:44:10;;;;;;;;;;;;;;;-144.99;100.00;52372.69;5067531;28;20391;-63
2023/04/15 05:46:37;;;;;;;;;;;;;;;-144.99;100.00;52407.31;5066451;28;20385;-63
2023/04/15 05:49:03;;;;;;;;;;;;;;;-144.99;100.00;52409.38;5063151;28;19955;-64
2023/04/15 05:51:30;;;;;;;;;;;;;;;-144.99;100.00;52372.69;5053261;28;19928;-63
2023/04/15 05:53:56;;;;;;;;;;;;;;;-144.99;100.00;52395.09;5064856;28;19932;-64
2023/04/15 05:56:23;;;;;;;;;;;;;;;-144.99;100.00;52366.56;5056818;28;19924;-64
2023/04/15 05:58:50;;;;;;;;;;;;;;;-144.99;100.00;52382.88;5060044;28;19928;-64
2023/04/15 06:01:18;;;;;;;;;;;;;;;-144.99;100.00;52366.56;5063552;28;19924;-66
2023/04/15 06:03:45;;;;;;;;;;;;;;;-144.99;100.00;52413.44;5067332;28;19960;-68
2023/04/15 06:06:12;;;;;;;;;;;;;;;-144.99;100.00;52391.03;5058030;28;20422;-68
2023/04/15 06:08:38;;;;;;;;;;;;;;;-144.99;100.00;52370.63;5053872;28;20347;-68
2023/04/15 06:11:05;;;;;;;;;;;;;;;-144.99;100.00;52313.56;5052654;28;19925;-69
2023/04/15 06:13:31;;;;;;;;;;;;;;;-144.99;100.00;52370.63;5057342;28;20395;-68
2023/04/15 06:15:58;;;;;;;;;;;;;;;-144.99;100.00;52370.63;5065312;28;20002;-68
2023/04/15 06:18:26;;;;;;;;;;;;;;;-144.99;100.00;52399.19;5054448;28;19986;-68
2023/04/15 06:20:53;;;;;;;;;;;;;;;-144.99;100.00;52403.25;5064964;28;20034;-68
2023/04/15 06:23:19;;;;;;;;;;;;;;;-144.99;100.00;52407.31;5067299;28;19932;-69
2023/04/15 06:25:46;;;;;;;;;;;;;;;-144.99;100.00;52378.78;5060877;28;20388;-66
2023/04/15 06:28:12;;;;;;;;;;;;;;;-144.99;100.00;52384.91;5059857;28;19928;-66
2023/04/15 06:30:39;;;;;;;;;;;;;;;-144.99;100.00;52366.56;5061614;28;19925;-67
2023/04/15 06:33:06;;;;;;;;;;;;;;;-144.99;100.00;52395.09;5064458;28;19986;-66
2023/04/15 06:35:34;;;;;;;;;;;;;;;-144.99;100.00;52378.78;5057203;28;19924;-66
2023/04/15 06:38:00;;;;;;;;;;;;;;;-144.99;100.00;52378.78;5055485;28;20302;-66
2023/04/15 06:40:27;;;;;;;;;;;;;;;-144.99;100.00;52350.25;5068433;28;19936;-66
2023/04/15 06:42:53;;;;;;;;;;;;;;;-144.99;100.00;52388.97;5065085;28;20002;-66
2023/04/15 06:45:20;;;;;;;;;;;;;;;-144.99;100.00;52386.94;5058372;28;19975;-72
2023/04/15 06:47:46;;;;;;;;;;;;;;;-144.99;100.00;52378.78;5067048;28;19955;-74
2023/04/15 06:50:13;;;;;;;;;;;;;;;-144.99;100.00;52376.75;5065783;28;20006;-74
2023/04/15 06:52:41;;;;;;;;;;;;;;;-144.99;100.00;52374.72;5059419;28;19924;-66
2023/04/15 06:55:08;;;;;;;;;;;;;;;-144.99;100.00;52374.72;5065058;28;19978;-66
2023/04/15 06:57:35;;;;;;;;;;;;;;;-144.99;100.00;52419.56;5067735;28;20309;-66
2023/04/15 07:00:04;;;;;;;;;;;;;;;-144.99;100.00;52386.94;5055986;28;19963;-67
2023/04/15 07:02:31;;;;;;;;;;;;;;;-144.99;100.00;52407.31;5054344;28;19929;-70
2023/04/15 07:04:57;;;;;;;;;;;;;;;-144.99;100.00;52366.56;5060612;28;19997;-65
2023/04/15 07:07:24;;;;;;;;;;;;;;;-144.99;100.00;52336.00;5064649;28;19963;-66
2023/04/15 07:09:52;;;;;;;;;;;;;;;-144.99;100.00;52386.94;5067288;28;19932;-65
2023/04/15 07:12:19;;;;;;;;;;;;;;;-144.99;100.00;52366.56;5067725;28;19932;-65
2023/04/15 07:14:45;;;;;;;;;;;;;;;-144.99;100.00;52333.94;5064587;28;20026;-64
2023/04/15 07:17:12;;;;;;;;;;;;;;;-144.99;100.00;52386.94;5049752;28;20049;-67
2023/04/15 07:19:39;;;;;;;;;;;;;;;-144.99;100.00;52370.63;5055395;28;20451;-66
2023/04/15 07:22:05;;;;;;;;;;;;;;;-144.99;100.00;52370.63;5068663;28;20057;-65
2023/04/15 07:24:32;;;;;;;;;;;;;;;-144.99;100.00;52382.88;5057552;28;19928;-65
2023/04/15 07:27:00;;;;;;;;;;;;;;;-144.99;100.00;52407.31;5056571;28;20403;-71
2023/04/15 07:29:27;;;;;;;;;;;;;;;-144.99;100.00;52368.59;5066221;28;19956;-72
2023/04/15 07:31:55;;;;;;;;;;;;;;;-144.99;100.00;52391.03;5065962;28;19928;-71
2023/04/15 07:34:21;;;;;;;;;;;;;;;-144.99;100.00;52415.47;5056144;28;19999;-65
2023/04/15 07:36:49;;;;;;;;;;;;;;;-144.99;100.00;52423.63;5055790;28;19925;-63
2023/04/15 07:39:16;;;;;;;;;;;;;;;-144.99;100.00;52362.50;5050974;28;19925;-63
2023/04/15 07:41:42;;;;;;;;;;;;;;;-144.99;100.00;52366.56;5064226;28;19937;-63
2023/04/15 07:44:10;;;;;;;;;;;;;;;-144.99;100.00;52338.03;5059797;28;20415;-63
2023/04/15 07:46:37;;;;;;;;;;;;;;;-144.99;100.00;52382.88;5057265;28;20377;-63
2023/04/15 07:49:04;;;;;;;;;;;;;;;-144.99;100.00;52399.19;5055938;28;19964;-62
2023/04/15 07:51:31;;;;;;;;;;;;;;;-144.99;100.00;52391.03;5067662;28;19973;-64
2023/04/15 07:53:57;;;;;;;;;;;;;;;-144.99;100.00;52354.34;5064325;28;19942;-63
2023/04/15 07:56:25;;;;;;;;;;;;;;;-144.99;100.00;52358.41;5059813;28;19982;-64
2023/04/15 07:58:51;;;;;;;;;;;;;;;-144.99;100.00;52368.59;5064365;28;19933;-65
2023/04/15 08:01:19;;;;;;;;;;;;;;;-144.99;100.00;52395.09;5066956;28;19929;-67
2023/04/15 08:03:47;;;;;;;;;;;;;;;-144.99;100.00;52407.31;5060708;28;19929;-67
2023/04/15 08:06:13;;;;;;;;;;;;;;;-144.99;100.00;52386.94;5055860;28;19929;-67
2023/04/15 08:08:40;;;;;;;;;;;;;;;-144.99;100.00;52350.25;5061107;28;19924;-66
2023/04/15 08:11:07;;;;;;;;;;;;;;;-144.99;100.00;52382.88;5059405;28;20345;-66
2023/04/15 08:13:33;;;;;;;;;;;;;;;-144.99;100.00;52370.63;5068674;28;20065;-66
2023/04/15 08:16:14;;;;;;;;;;;;;;;-144.99;100.00;52354.34;5055412;28;19929;-67
2023/04/15 08:18:42;;;;;;;;;;;;;;;-144.99;100.00;52399.19;5056747;28;19925;-65
2023/04/15 08:21:09;;;;;;;;;;;;;;;-144.99;100.00;52388.97;5058948;28;20011;-66
2023/04/15 08:23:35;;;;;;;;;;;;;;;-144.99;100.00;52358.41;5053617;28;19925;-65
2023/04/15 08:26:02;;;;;;;;;;;;;;;-144.99;100.00;52374.72;5055519;28;19924;-65
2023/04/15 08:28:28;;;;;;;;;;;;;;;-144.99;100.00;52338.03;5049048;28;19937;-65
2023/04/15 08:30:55;;;;;;;;;;;;;;;-144.99;100.00;52342.09;5056458;28;19987;-66
2023/04/15 08:33:22;;;;;;;;;;;;;;;-144.99;100.00;52358.41;5058541;28;20366;-66
2023/04/15 08:35:50;;;;;;;;;;;;;;;-144.99;100.00;52368.59;5058972;28;19925;-66
2023/04/15 08:38:17;;;;;;;;;;;;;;;-144.99;100.00;52360.44;5057008;28;20231;-65
2023/04/15 08:40:44;;;;;;;;;;;;;;;-144.99;100.00;52407.31;5065955;28;19968;-65
2023/04/15 08:43:12;;;;;;;;;;;;;;;-144.99;100.00;52376.75;5053120;28;20010;-59
2023/04/15 08:45:39;;;;;;;;;;;;;;;-144.99;100.00;52354.34;5052770;28;19925;-60
2023/04/15 08:48:06;;;;;;;;;;;;;;;-144.99;100.00;52354.34;5057741;28;20002;-60
2023/04/15 08:50:32;;;;;;;;;;;;;;;-144.99;100.00;52352.28;5062318;28;19929;-60
2023/04/15 08:53:00;;;;;;;;;;;;;;;-144.99;100.00;52382.88;5071527;28;19982;-60
2023/04/15 08:55:29;;;;;;;;;;;;;;;-144.99;100.00;52358.41;5042590;28;19994;-61
2023/04/15 08:57:56;;;;;;;;;;;;;;;-144.99;100.00;52362.50;5053662;28;19928;-60
2023/04/15 09:00:22;;;;;;;;;;;;;;;-144.99;100.00;52362.50;5055014;28;20353;-65
2023/04/15 09:02:49;;;;;;;;;;;;;;;-144.99;100.00;52358.41;5063610;28;19932;-64
2023/04/15 09:05:16;;;;;;;;;;;;;;;-144.99;100.00;52366.56;5061808;28;19975;-65
2023/04/15 09:07:43;;;;;;;;;;;;;;;-144.99;100.00;52348.22;5066375;28;20312;-65
2023/04/15 09:10:11;;;;;;;;;;;;;;;-144.99;100.00;52358.41;5058976;28;19998;-64
2023/04/15 09:12:38;;;;;;;;;;;;;;;-144.99;100.00;52342.09;5055244;28;19940;-64
2023/04/15 09:15:05;;;;;;;;;;;;;;;-144.99;100.00;52329.88;5055962;28;19929;-64
2023/04/15 09:17:33;;;;;;;;;;;;;;;-144.99;100.00;52358.41;5052530;28;19955;-65
2023/04/15 09:20:09;;;;;;;;;;;;;;;-144.99;100.00;52378.78;5050631;28;19999;-64
2023/04/15 09:22:36;;;;;;;;;;;;;;;-144.99;100.00;52356.38;5050560;28;20219;-64
2023/04/15 09:25:03;;;;;;;;;;;;;;;-144.99;100.00;52366.56;5051116;28;20368;-64
2023/04/15 09:27:31;;;;;;;;;;;;;;;-144.99;100.00;52346.19;5064161;28;19936;-64
2023/04/15 09:29:57;;;;;;;;;;;;;;;-144.99;100.00;52362.50;5057364;28;20255;-64
2023/04/15 09:32:24;;;;;;;;;;;;;;;-144.99;100.00;52354.34;5061334;28;19933;-64
2023/04/15 09:34:51;;;;;;;;;;;;;;;-144.99;100.00;52368.59;5061105;28;20047;-64
2023/04/15 09:37:19;;;;;;;;;;;;;;;-144.99;100.00;52362.50;5054296;28;19960;-64
2023/04/15 09:39:47;;;;;;;;;;;;;;;-144.99;100.00;52338.03;5062650;28;19992;-66
2023/04/15 09:42:13;;;;;;;;;;;;;;;-144.99;100.00;52338.03;5060722;28;20006;-64
2023/04/15 09:44:41;;;;;;;;;;;;;;;-144.99;100.00;52313.56;5058682;28;19932;-64
2023/04/15 09:47:08;;;;;;;;;;;;;;;-144.99;100.00;52380.84;5055026;28;20024;-64
2023/04/15 09:49:34;;;;;;;;;;;;;;;-144.99;100.00;52315.59;5057596;28;19928;-64
2023/04/15 09:52:02;;;;;;;;;;;;;;;-144.99;100.00;52329.88;5056475;28;19928;-64
2023/04/15 09:54:33;;;;;;;;;;;;;;;-144.99;100.00;52342.09;5048239;28;20376;-64
2023/04/15 09:57:05;;;;;;;;;;;;;;;-144.99;99.82;52350.25;5043549;28;19928;-64
2023/04/15 09:59:31;;;;;;;;;;;;;;;-144.99;100.00;52370.63;5055853;28;19931;-64
2023/04/15 10:01:59;;;;;;;;;;;;;;;-144.99;99.85;52311.53;5055709;28;20000;-64
2023/04/15 10:04:27;;;;;;;;;;;;;;;-144.99;99.98;52350.25;5059092;28;19932;-64
2023/04/15 10:06:53;;;;;;;;;;;;;;;-144.99;99.40;52362.50;5059419;28;20016;-64
2023/04/15 10:09:20;;;;;;;;;;;;;;;-144.99;98.96;52348.22;5057152;28;19981;-63
2023/04/15 10:11:48;;;;;;;;;;;;;;;-144.99;98.28;52333.94;5057264;28;19929;-64
2023/04/15 10:14:16;;;;;;;;;;;;;;;-144.99;97.58;52340.06;5055798;28;19998;-63
2023/04/15 10:16:47;;;;;;;;;;;;;;;-144.99;96.76;52317.66;5059190;28;19928;-63
2023/04/15 10:19:16;;;;;;;;;;;;;;;-144.99;96.09;52354.34;5063657;28;19925;-64
2023/04/15 10:21:43;;;;;;;;;;;;;;;-144.99;95.25;52338.03;5062429;28;19992;-64
2023/04/15 10:24:10;;;;;;;;;;;;;;;-144.99;95.86;52338.03;5057648;28;19924;-63
2023/04/15 10:26:38;;;;;;;;;;;;;;;-144.99;95.79;52293.19;5058095;28;19924;-65
2023/04/15 10:29:05;;;;;;;;;;;;;;;-144.99;94.36;52329.88;5050845;28;20070;-64
2023/04/15 10:31:31;;;;;;;;;;;;;;;-144.99;92.64;52321.72;5055774;28;19975;-65
2023/04/15 10:34:02;;;;;;;;;;;;;;;-144.99;91.72;52329.88;5057280;28;20354;-64
2023/04/15 10:36:30;;;;;;;;;;;;;;;-144.99;91.58;52313.56;5055860;28;20362;-64
2023/04/15 10:38:57;;;;;;;;;;;;;;;-144.99;91.42;52291.16;5064669;28;20459;-56
2023/04/15 10:41:24;;;;;;;;;;;;;;;-144.99;91.38;52352.28;5057844;28;19929;-55
2023/04/15 10:43:52;;;;;;;;;;;;;;;-144.99;92.02;52309.50;5059369;28;19939;-57
2023/04/15 10:46:20;;;;;;;;;;;;;;;-144.99;91.37;52315.59;5057370;28;20066;-57
2023/04/15 10:48:47;;;;;;;;;;;;;;;-144.99;91.20;52285.03;5057692;28;19924;-57
2023/04/15 10:51:14;;;;;;;;;;;;;;;-144.99;87.02;52309.50;5052494;28;19931;-55
2023/04/15 10:53:43;;;;;;;;;;;;;;;-144.99;83.66;52270.78;5054538;28;19925;-56
2023/04/15 10:56:10;;;;;;;;;;;;;;;-144.99;82.04;52244.28;5058749;28;19925;-54
2023/04/15 10:58:41;;;;;;;;;;;;;;;-144.99;80.45;52211.66;5057342;28;20432;-57
2023/04/15 11:01:08;;;;;;;;;;;;;;;-144.99;78.78;52248.34;5050573;28;19925;-58
2023/04/15 11:03:37;;;;;;;;;;;;;;;-144.99;76.09;52191.28;5055907;28;20327;-57
2023/04/15 11:06:04;;;;;;;;;;;;;;;-144.99;74.90;52232.03;5054077;28;20024;-65
2023/04/15 11:08:48;;;;;;;;;;;;;;;-144.99;74.87;52203.50;5052452;28;19929;-65
2023/04/15 11:11:16;;;;;;;;;;;;;;;-144.99;75.48;52215.75;5057114;28;19924;-66
2023/04/15 11:13:48;;;;;;;;;;;;;;;-144.99;74.48;52234.09;5068338;28;20175;-65
2023/04/15 11:16:14;;;;;;;;;;;;;;;-144.99;74.26;52215.75;5063295;28;20083;-65
2023/04/15 11:18:41;;;;;;;;;;;;;;;-144.99;74.34;52205.53;5054012;28;19971;-65
2023/04/15 11:21:08;;;;;;;;;;;;;;;-144.99;74.96;52221.84;5060784;28;19924;-65
2023/04/15 11:23:39;;;;;;;;;;;;;;;-144.99;75.12;52244.28;5055506;28;19925;-65
2023/04/15 11:26:08;;;;;;;;;;;;;;;-144.99;74.28;52134.22;5065195;28;19982;-65
2023/04/15 11:28:36;;;;;;;;;;;;;;;-144.99;74.61;52236.13;5053736;28;20018;-65
2023/04/15 11:31:07;;;;;;;;;;;;;;;-144.99;74.41;52258.53;5054613;28;19967;-65
2023/04/15 11:33:33;;;;;;;;;;;;;;;-144.99;73.67;52232.03;5052359;28;19956;-64
2023/04/15 11:36:01;;;;;;;;;;;;;;;-144.99;73.96;52240.19;5050572;28;19982;-65
2023/04/15 11:38:27;;;;;;;;;;;;;;;-144.99;74.64;52268.72;5059848;28;19976;-65
2023/04/15 11:40:54;;;;;;;;;;;;;;;-144.99;74.92;52270.78;5056488;28;19995;-64
2023/04/15 11:43:21;;;;;;;;;;;;;;;-144.99;75.46;52264.66;5056833;28;20248;-65
2023/04/15 11:45:50;;;;;;;;;;;;;;;-144.99;75.51;52283.00;5055669;28;20382;-64
2023/04/15 11:48:17;;;;;;;;;;;;;;;-144.99;75.62;52285.03;5048344;28;19929;-65
2023/04/15 11:50:43;;;;;;;;;;;;;;;-144.99;75.47;52272.81;5060849;28;20068;-65
2023/04/15 11:53:11;;;;;;;;;;;;;;;-144.99;75.69;52313.56;5067749;28;19986;-64
2023/04/15 11:55:45;;;;;;;;;;;;;;;-144.99;75.89;52297.25;5059861;28;19978;-65
2023/04/15 11:58:13;;;;;;;;;;;;;;;-144.99;77.90;52336.00;5057701;28;20028;-64
2023/04/15 12:00:40;;;;;;;;;;;;;;;-144.99;77.60;52280.97;5062477;28;19925;-65
2023/04/15 12:03:17;;;;;;;;;;;;;;;-144.99;77.71;52297.25;5062925;28;19928;-65
2023/04/15 12:06:02;;;;;;;;;;;;;;;-144.99;77.57;52331.91;5064940;28;19928;-65
2023/04/15 12:08:47;;;;;;;;;;;;;;;-144.99;78.15;52313.56;5061376;28;19932;-64
2023/04/15 12:11:14;;;;;;;;;;;;;;;-144.99;78.08;52354.34;5061505;28;19963;-64
2023/04/15 12:13:43;;;;;;;;;;;;;;;-144.99;77.53;52327.84;5065063;28;19928;-64
2023/04/15 12:16:10;;;;;;;;;;;;;;;-144.99;75.88;52280.97;5063960;28;19928;-65
2023/04/15 12:18:39;;;;;;;;;;;;;;;-144.99;75.01;52354.34;5066796;28;19929;-65
2023/04/15 12:21:09;;;;;;;;;;;;;;;-144.99;75.10;52270.78;5064614;28;19982;-64